createdAt,value
2022-10-04T00:00:13.060Z,6.40
2022-10-04T00:01:13.039Z,6.80
2022-10-04T00:02:13.078Z,6.80
2022-10-04T00:03:13.092Z,7.00
2022-10-04T00:04:12.988Z,6.60
2022-10-04T00:05:12.989Z,7.10
2022-10-04T00:06:12.947Z,6.60
2022-10-04T00:07:12.935Z,7.10
2022-10-04T00:08:12.912Z,7.20
2022-10-04T00:09:12.892Z,6.60
2022-10-04T00:10:12.880Z,6.60
2022-10-04T00:11:12.859Z,7.20
2022-10-04T00:12:12.845Z,6.80
2022-10-04T00:13:12.821Z,6.20
2022-10-04T00:14:12.801Z,6.60
2022-10-04T00:15:12.781Z,6.70
2022-10-04T00:16:12.810Z,6.60
2022-10-04T00:17:12.745Z,7.10
2022-10-04T00:18:12.728Z,7.10
2022-10-04T00:19:12.708Z,6.40
2022-10-04T00:20:12.689Z,7.10
2022-10-04T00:21:12.690Z,6.60
2022-10-04T00:22:12.677Z,6.50
2022-10-04T00:23:12.641Z,7.00
2022-10-04T00:24:12.612Z,7.10
2022-10-04T00:25:12.594Z,6.60
2022-10-04T00:26:12.581Z,7.10
2022-10-04T00:27:12.563Z,7.30
2022-10-04T00:28:12.577Z,6.90
2022-10-04T00:29:12.524Z,6.70
2022-10-04T00:30:12.504Z,7.40
2022-10-04T00:31:12.535Z,6.90
2022-10-04T00:32:12.471Z,6.70
2022-10-04T00:33:12.455Z,7.00
2022-10-04T00:34:12.430Z,7.40
2022-10-04T00:35:12.413Z,6.50
2022-10-04T00:36:12.398Z,6.60
2022-10-04T00:37:12.395Z,7.40
2022-10-04T00:38:12.356Z,6.90
2022-10-04T00:39:12.341Z,6.80
2022-10-04T00:40:12.322Z,6.70
2022-10-04T00:41:12.304Z,7.00
2022-10-04T00:42:12.285Z,6.50
2022-10-04T00:43:12.265Z,7.00
2022-10-04T00:44:12.244Z,7.10
2022-10-04T00:45:12.227Z,7.20
2022-10-04T00:46:12.236Z,7.30
2022-10-04T00:47:12.188Z,6.60
2022-10-04T00:48:12.166Z,6.60
2022-10-04T00:49:12.155Z,7.40
2022-10-04T00:50:12.133Z,6.80
2022-10-04T00:51:12.118Z,6.80
2022-10-04T00:52:12.098Z,7.60
2022-10-04T00:53:12.102Z,7.20
2022-10-04T00:54:12.061Z,6.70
2022-10-04T00:55:12.038Z,6.40
2022-10-04T00:56:12.019Z,7.70
2022-10-04T00:57:12.009Z,7.10
2022-10-04T00:58:11.984Z,6.70
2022-10-04T00:59:11.964Z,7.50
2022-10-04T01:00:11.947Z,7.30
2022-10-04T01:01:11.986Z,7.00
2022-10-04T01:02:11.957Z,7.40
2022-10-04T01:03:11.899Z,7.50
2022-10-04T01:04:11.868Z,7.20
2022-10-04T01:05:11.859Z,7.40
2022-10-04T01:06:11.837Z,7.00
2022-10-04T01:07:11.819Z,7.00
2022-10-04T01:08:11.798Z,6.60
2022-10-04T01:09:11.801Z,7.20
2022-10-04T01:10:11.762Z,7.40
2022-10-04T01:11:11.742Z,6.90
2022-10-04T01:12:11.726Z,7.80
2022-10-04T01:13:11.701Z,7.20
2022-10-04T01:14:11.685Z,7.30
2022-10-04T01:15:11.668Z,7.90
2022-10-04T01:16:11.828Z,7.20
2022-10-04T01:17:11.632Z,6.80
2022-10-04T01:18:11.611Z,6.80
2022-10-04T01:19:11.595Z,6.40
2022-10-04T01:20:11.574Z,7.30
2022-10-04T01:21:11.560Z,7.50
2022-10-04T01:22:11.542Z,7.20
2022-10-04T01:23:11.517Z,7.00
2022-10-04T01:24:11.497Z,6.70
2022-10-04T01:25:11.499Z,7.00
2022-10-04T01:26:11.461Z,7.10
2022-10-04T01:27:11.446Z,7.40
2022-10-04T01:28:11.468Z,6.60
2022-10-04T01:29:11.410Z,6.90
2022-10-04T01:30:11.387Z,6.70
2022-10-04T01:31:11.430Z,7.20
2022-10-04T01:32:11.351Z,7.40
2022-10-04T01:33:11.332Z,6.60
2022-10-04T01:34:11.313Z,7.10
2022-10-04T01:35:11.295Z,7.10
2022-10-04T01:36:11.273Z,6.90
2022-10-04T01:37:11.254Z,6.70
2022-10-04T01:38:11.236Z,6.60
2022-10-04T01:39:11.218Z,6.80
2022-10-04T01:40:11.209Z,6.50
2022-10-04T01:41:11.204Z,6.50
2022-10-04T01:42:11.164Z,7.00
2022-10-04T01:43:11.144Z,6.80
2022-10-04T01:44:11.123Z,7.30
2022-10-04T01:45:11.112Z,6.80
2022-10-04T01:46:11.184Z,6.20
2022-10-04T01:47:11.078Z,6.80
2022-10-04T01:48:11.052Z,6.70
2022-10-04T01:49:11.031Z,6.70
2022-10-04T01:50:15.577Z,7.20
2022-10-04T01:51:11.000Z,6.50
2022-10-04T01:52:10.973Z,6.70
2022-10-04T01:53:10.958Z,7.50
2022-10-04T01:54:10.940Z,6.80
2022-10-04T01:55:10.924Z,7.40
2022-10-04T01:56:10.903Z,6.70
2022-10-04T01:57:10.903Z,7.00
2022-10-04T01:58:10.872Z,6.80
2022-10-04T01:59:10.852Z,7.60
2022-10-04T02:00:10.830Z,7.10
2022-10-04T02:01:10.885Z,7.00
2022-10-04T02:02:10.788Z,7.10
2022-10-04T02:03:10.774Z,7.20
2022-10-04T02:04:10.838Z,7.60
2022-10-04T02:05:10.734Z,7.60
2022-10-04T02:06:10.716Z,7.40
2022-10-04T02:07:10.698Z,7.60
2022-10-04T02:08:10.677Z,7.20
2022-10-04T02:09:10.656Z,7.90
2022-10-04T02:10:10.639Z,7.60
2022-10-04T02:11:10.622Z,7.00
2022-10-04T02:12:10.603Z,7.50
2022-10-04T02:13:10.602Z,7.20
2022-10-04T02:14:10.563Z,7.90
2022-10-04T02:15:10.547Z,7.50
2022-10-04T02:16:10.601Z,7.20
2022-10-04T02:17:10.649Z,7.80
2022-10-04T02:18:10.491Z,8.00
2022-10-04T02:19:10.472Z,7.30
2022-10-04T02:20:10.451Z,6.70
2022-10-04T02:21:10.440Z,6.60
2022-10-04T02:22:10.417Z,6.80
2022-10-04T02:23:10.398Z,7.20
2022-10-04T02:24:10.378Z,7.50
2022-10-04T02:25:10.358Z,7.70
2022-10-04T02:26:10.341Z,7.40
2022-10-04T02:27:10.322Z,7.50
2022-10-04T02:28:10.337Z,7.60
2022-10-04T02:29:10.303Z,7.60
2022-10-04T02:30:10.269Z,7.80
2022-10-04T02:31:10.311Z,8.00
2022-10-04T02:32:10.228Z,7.20
2022-10-04T02:33:10.209Z,7.40
2022-10-04T02:34:10.192Z,7.10
2022-10-04T02:35:10.173Z,7.50
2022-10-04T02:36:10.152Z,7.70
2022-10-04T02:37:10.131Z,7.40
2022-10-04T02:38:10.121Z,7.90
2022-10-04T02:39:10.099Z,8.00
2022-10-04T02:40:10.075Z,7.40
2022-10-04T02:41:10.060Z,7.80
2022-10-04T02:42:10.038Z,8.00
2022-10-04T02:43:10.019Z,7.60
2022-10-04T02:44:10.005Z,8.00
2022-10-04T02:45:10.004Z,7.80
2022-10-04T02:46:10.035Z,7.10
2022-10-04T02:47:09.952Z,7.40
2022-10-04T02:48:09.935Z,7.70
2022-10-04T02:49:09.910Z,7.40
2022-10-04T02:50:09.894Z,7.60
2022-10-04T02:51:09.877Z,7.10
2022-10-04T02:52:09.853Z,7.30
2022-10-04T02:53:09.833Z,7.00
2022-10-04T02:54:09.817Z,7.10
2022-10-04T02:55:09.795Z,7.20
2022-10-04T02:56:09.773Z,7.00
2022-10-04T02:57:09.760Z,6.90
2022-10-04T02:58:09.741Z,7.50
2022-10-04T02:59:09.723Z,7.10
2022-10-04T03:00:09.710Z,7.10
2022-10-04T03:01:09.772Z,6.90
2022-10-04T03:02:09.721Z,7.20
2022-10-04T03:03:09.649Z,7.10
2022-10-04T03:04:09.628Z,8.20
2022-10-04T03:05:09.608Z,7.00
2022-10-04T03:06:09.591Z,7.10
2022-10-04T03:07:09.573Z,7.20
2022-10-04T03:08:09.549Z,7.00
2022-10-04T03:09:09.534Z,7.00
2022-10-04T03:10:09.517Z,6.80
2022-10-04T03:11:09.492Z,7.40
2022-10-04T03:12:09.474Z,7.70
2022-10-04T03:13:09.456Z,7.10
2022-10-04T03:14:09.434Z,7.70
2022-10-04T03:15:09.419Z,7.10
2022-10-04T03:16:09.501Z,7.20
2022-10-04T03:17:09.404Z,6.80
2022-10-04T03:18:09.362Z,6.50
2022-10-04T03:19:09.343Z,7.00
2022-10-04T03:20:09.325Z,7.00
2022-10-04T03:21:09.301Z,7.10
2022-10-04T03:22:09.285Z,7.30
2022-10-04T03:23:09.264Z,6.90
2022-10-04T03:24:09.249Z,7.30
2022-10-04T03:25:09.241Z,7.20
2022-10-04T03:26:09.222Z,7.30
2022-10-04T03:27:09.203Z,7.20
2022-10-04T03:28:09.269Z,7.40
2022-10-04T03:29:09.153Z,7.20
2022-10-04T03:30:09.133Z,6.80
2022-10-04T03:31:09.147Z,7.10
2022-10-04T03:32:09.097Z,7.40
2022-10-04T03:33:09.093Z,7.70
2022-10-04T03:34:09.058Z,7.30
2022-10-04T03:35:09.038Z,8.10
2022-10-04T03:36:09.015Z,7.40
2022-10-04T03:37:08.997Z,8.10
2022-10-04T03:38:08.981Z,7.20
2022-10-04T03:39:08.962Z,7.40
2022-10-04T03:40:08.937Z,7.10
2022-10-04T03:41:08.921Z,7.40
2022-10-04T03:42:08.907Z,7.30
2022-10-04T03:43:08.887Z,7.10
2022-10-04T03:44:08.863Z,7.70
2022-10-04T03:45:08.843Z,7.20
2022-10-04T03:46:08.898Z,6.70
2022-10-04T03:47:08.808Z,7.30
2022-10-04T03:48:08.788Z,7.30
2022-10-04T03:49:08.785Z,7.40
2022-10-04T03:50:08.753Z,7.50
2022-10-04T03:51:08.735Z,7.30
2022-10-04T03:52:08.714Z,7.30
2022-10-04T03:53:08.694Z,7.80
2022-10-04T03:54:08.675Z,7.40
2022-10-04T03:55:08.663Z,7.50
2022-10-04T03:56:08.638Z,6.90
2022-10-04T03:57:08.614Z,7.40
2022-10-04T03:58:08.596Z,7.20
2022-10-04T03:59:08.578Z,7.50
2022-10-04T04:00:08.572Z,7.40
2022-10-04T04:01:08.601Z,8.00
2022-10-04T04:02:08.615Z,7.70
2022-10-04T04:03:08.505Z,7.50
2022-10-04T04:04:08.490Z,7.50
2022-10-04T04:05:08.482Z,7.60
2022-10-04T04:06:08.445Z,7.80
2022-10-04T04:07:08.426Z,7.90
2022-10-04T04:08:08.404Z,7.00
2022-10-04T04:09:08.386Z,7.70
2022-10-04T04:10:10.270Z,7.50
2022-10-04T04:11:08.349Z,7.60
2022-10-04T04:12:08.326Z,8.20
2022-10-04T04:13:08.312Z,7.40
2022-10-04T04:14:08.288Z,7.60
2022-10-04T04:15:08.274Z,7.70
2022-10-04T04:16:08.285Z,8.40
2022-10-04T04:17:08.232Z,7.70
2022-10-04T04:18:08.220Z,8.10
2022-10-04T04:19:08.194Z,8.00
2022-10-04T04:20:08.179Z,8.10
2022-10-04T04:21:08.187Z,8.20
2022-10-04T04:22:08.138Z,8.20
2022-10-04T04:23:08.120Z,8.40
2022-10-04T04:24:08.102Z,8.00
2022-10-04T04:25:08.080Z,7.60
2022-10-04T04:26:08.073Z,8.10
2022-10-04T04:27:08.040Z,8.20
2022-10-04T04:28:08.057Z,7.80
2022-10-04T04:29:08.006Z,7.40
2022-10-04T04:30:07.982Z,8.20
2022-10-04T04:31:07.966Z,8.30
2022-10-04T04:32:07.996Z,7.80
2022-10-04T04:33:07.924Z,8.30
2022-10-04T04:34:07.909Z,8.50
2022-10-04T04:35:07.894Z,8.70
2022-10-04T04:36:07.867Z,8.00
2022-10-04T04:37:07.866Z,8.20
2022-10-04T04:38:07.827Z,8.60
2022-10-04T04:39:07.810Z,8.60
2022-10-04T04:40:07.790Z,8.90
2022-10-04T04:41:07.772Z,8.80
2022-10-04T04:42:07.758Z,8.40
2022-10-04T04:43:07.736Z,9.00
2022-10-04T04:44:07.716Z,9.00
2022-10-04T04:45:07.695Z,8.90
2022-10-04T04:46:26.774Z,8.80
2022-10-04T04:47:07.658Z,8.80
2022-10-04T04:48:07.639Z,8.70
2022-10-04T04:49:07.620Z,9.10
2022-10-04T04:50:07.601Z,8.40
2022-10-04T04:51:07.577Z,9.40
2022-10-04T04:52:07.559Z,8.50
2022-10-04T04:53:07.561Z,8.40
2022-10-04T04:54:07.520Z,9.30
2022-10-04T04:55:07.498Z,8.60
2022-10-04T04:56:10.594Z,9.40
2022-10-04T04:57:07.458Z,9.10
2022-10-04T04:58:07.446Z,8.70
2022-10-04T04:59:07.431Z,8.70
2022-10-04T05:00:07.405Z,8.90
2022-10-04T05:01:07.510Z,9.10
2022-10-04T05:02:07.448Z,8.60
2022-10-04T05:03:07.347Z,9.40
2022-10-04T05:04:07.325Z,9.10
2022-10-04T05:05:07.309Z,8.90
2022-10-04T05:06:07.287Z,9.10
2022-10-04T05:07:07.289Z,9.30
2022-10-04T05:08:07.248Z,8.70
2022-10-04T05:09:07.247Z,10.60
2022-10-04T05:10:07.216Z,9.50
2022-10-04T05:11:07.193Z,9.30
2022-10-04T05:12:07.177Z,9.50
2022-10-04T05:13:07.152Z,9.90
2022-10-04T05:14:07.135Z,9.50
2022-10-04T05:15:07.173Z,8.90
2022-10-04T05:16:07.164Z,9.00
2022-10-04T05:17:07.073Z,9.40
2022-10-04T05:18:07.059Z,9.30
2022-10-04T05:19:07.041Z,9.70
2022-10-04T05:20:07.023Z,9.40
2022-10-04T05:21:06.997Z,9.50
2022-10-04T05:22:06.981Z,9.50
2022-10-04T05:23:06.963Z,9.70
2022-10-04T05:24:06.944Z,8.70
2022-10-04T05:25:06.938Z,9.50
2022-10-04T05:26:06.901Z,9.80
2022-10-04T05:27:06.878Z,10.00
2022-10-04T05:28:07.009Z,10.10
2022-10-04T05:29:06.845Z,9.80
2022-10-04T05:30:06.827Z,9.90
2022-10-04T05:31:06.803Z,10.10
2022-10-04T05:32:06.850Z,9.80
2022-10-04T05:33:06.764Z,11.30
2022-10-04T05:34:06.741Z,10.10
2022-10-04T05:35:06.723Z,9.70
2022-10-04T05:36:06.714Z,10.80
2022-10-04T05:37:06.687Z,10.60
2022-10-04T05:38:06.663Z,10.20
2022-10-04T05:39:06.648Z,10.30
2022-10-04T05:40:06.626Z,10.90
2022-10-04T05:41:06.628Z,11.00
2022-10-04T05:42:06.593Z,10.70
2022-10-04T05:43:06.572Z,10.30
2022-10-04T05:44:06.550Z,11.10
2022-10-04T05:45:06.530Z,11.30
2022-10-04T05:46:06.589Z,10.60
2022-10-04T05:47:06.489Z,10.80
2022-10-04T05:48:06.472Z,11.20
2022-10-04T05:49:06.449Z,10.80
2022-10-04T05:50:06.428Z,59.40
2022-10-04T05:51:06.416Z,45.50
2022-10-04T05:52:06.398Z,22.00
2022-10-04T05:53:06.375Z,14.90
2022-10-04T05:54:06.356Z,12.00
2022-10-04T05:55:06.333Z,12.20
2022-10-04T05:56:06.320Z,12.20
2022-10-04T05:57:06.326Z,13.20
2022-10-04T05:58:06.271Z,12.00
2022-10-04T05:59:06.253Z,11.90
2022-10-04T06:00:06.237Z,11.50
2022-10-04T06:01:06.278Z,10.70
2022-10-04T06:02:06.228Z,11.10
2022-10-04T06:03:06.179Z,11.70
2022-10-04T06:04:06.157Z,10.70
2022-10-04T06:05:06.143Z,10.60
2022-10-04T06:06:06.118Z,10.70
2022-10-04T06:07:06.095Z,11.20
2022-10-04T06:08:06.082Z,10.90
2022-10-04T06:09:06.062Z,11.00
2022-10-04T06:10:06.042Z,11.10
2022-10-04T06:11:06.023Z,10.80
2022-10-04T06:12:06.005Z,10.80
2022-10-04T06:13:06.001Z,10.90
2022-10-04T06:14:05.963Z,11.80
2022-10-04T06:15:05.943Z,10.50
2022-10-04T06:16:05.923Z,10.80
2022-10-04T06:17:06.024Z,10.50
2022-10-04T06:18:05.887Z,10.70
2022-10-04T06:19:05.869Z,10.40
2022-10-04T06:20:05.848Z,10.30
2022-10-04T06:21:05.827Z,9.90
2022-10-04T06:22:05.814Z,10.30
2022-10-04T06:23:05.791Z,11.80
2022-10-04T06:24:05.768Z,37.60
2022-10-04T06:25:05.753Z,13.80
2022-10-04T06:26:05.733Z,11.90
2022-10-04T06:27:05.713Z,11.40
2022-10-04T06:28:05.710Z,10.70
2022-10-04T06:29:05.700Z,10.80
2022-10-04T06:30:05.657Z,10.00
2022-10-04T06:31:05.673Z,9.70
2022-10-04T06:32:05.616Z,9.70
2022-10-04T06:33:05.597Z,10.00
2022-10-04T06:34:05.580Z,10.00
2022-10-04T06:35:05.559Z,10.00
2022-10-04T06:36:05.540Z,10.10
2022-10-04T06:37:05.523Z,9.70
2022-10-04T06:38:05.503Z,9.80
2022-10-04T06:39:05.483Z,9.20
2022-10-04T06:40:05.466Z,9.20
2022-10-04T06:41:05.445Z,8.90
2022-10-04T06:42:05.433Z,9.00
2022-10-04T06:43:05.411Z,9.00
2022-10-04T06:44:05.402Z,9.60
2022-10-04T06:45:05.394Z,8.70
2022-10-04T06:46:05.429Z,8.80
2022-10-04T06:47:05.337Z,8.30
2022-10-04T06:48:05.321Z,8.40
2022-10-04T06:49:05.310Z,9.20
2022-10-04T06:50:05.285Z,8.60
2022-10-04T06:51:05.271Z,8.50
2022-10-04T06:52:05.249Z,8.00
2022-10-04T06:53:05.230Z,8.10
2022-10-04T06:54:05.217Z,8.10
2022-10-04T06:55:05.198Z,7.70
2022-10-04T06:56:05.183Z,7.70
2022-10-04T06:57:05.174Z,7.60
2022-10-04T06:58:05.150Z,7.30
2022-10-04T06:59:05.134Z,8.00
2022-10-04T07:00:05.116Z,7.80
2022-10-04T07:01:05.182Z,7.60
2022-10-04T07:02:05.154Z,7.80
2022-10-04T07:03:05.074Z,7.20
2022-10-04T07:04:05.062Z,7.10
2022-10-04T07:05:09.375Z,6.90
2022-10-04T07:06:05.054Z,7.30
2022-10-04T07:07:05.015Z,7.30
2022-10-04T07:08:05.006Z,7.40
2022-10-04T07:09:04.990Z,6.80
2022-10-04T07:10:04.981Z,7.00
2022-10-04T07:11:07.302Z,6.40
2022-10-04T07:12:04.950Z,6.80
2022-10-04T07:13:04.938Z,6.90
2022-10-04T07:14:04.924Z,6.50
2022-10-04T07:15:04.912Z,6.80
2022-10-04T07:16:05.028Z,6.80
2022-10-04T07:17:04.919Z,6.80
2022-10-04T07:18:04.876Z,6.60
2022-10-04T07:19:04.860Z,6.80
2022-10-04T07:20:04.846Z,6.80
2022-10-04T07:21:04.835Z,6.70
2022-10-04T07:22:04.823Z,7.00
2022-10-04T07:23:04.811Z,6.50
2022-10-04T07:24:04.792Z,6.30
2022-10-04T07:25:04.780Z,6.50
2022-10-04T07:26:04.769Z,6.80
2022-10-04T07:27:04.755Z,6.40
2022-10-04T07:28:04.771Z,6.30
2022-10-04T07:29:04.730Z,6.90
2022-10-04T07:30:04.716Z,6.70
2022-10-04T07:31:04.801Z,6.70
2022-10-04T07:32:04.692Z,6.60
2022-10-04T07:33:04.696Z,6.60
2022-10-04T07:34:04.661Z,6.50
2022-10-04T07:35:04.654Z,6.60
2022-10-04T07:36:04.640Z,6.60
2022-10-04T07:37:04.627Z,6.60
2022-10-04T07:38:04.611Z,6.30
2022-10-04T07:39:04.598Z,5.80
2022-10-04T07:40:04.591Z,6.30
2022-10-04T07:41:04.572Z,6.50
2022-10-04T07:42:04.563Z,6.90
2022-10-04T07:43:04.547Z,6.10
2022-10-04T07:44:04.541Z,6.50
2022-10-04T07:45:04.521Z,6.30
2022-10-04T07:46:04.523Z,6.90
2022-10-04T07:47:04.494Z,6.60
2022-10-04T07:48:04.481Z,6.50
2022-10-04T07:49:04.501Z,7.20
2022-10-04T07:50:04.460Z,7.00
2022-10-04T07:51:04.447Z,6.60
2022-10-04T07:52:04.438Z,6.60
2022-10-04T07:53:08.650Z,6.40
2022-10-04T07:54:04.415Z,6.70
2022-10-04T07:55:04.417Z,6.10
2022-10-04T07:56:04.389Z,6.30
2022-10-04T07:57:04.378Z,6.50
2022-10-04T07:58:04.365Z,6.00
2022-10-04T07:59:04.353Z,6.20
2022-10-04T08:00:04.345Z,5.70
2022-10-04T08:01:04.336Z,5.80
2022-10-04T08:02:04.395Z,5.90
2022-10-04T08:03:04.388Z,5.50
2022-10-04T08:04:04.294Z,5.60
2022-10-04T08:05:04.305Z,5.70
2022-10-04T08:06:04.271Z,5.70
2022-10-04T08:07:04.255Z,6.20
2022-10-04T08:08:04.253Z,5.70
2022-10-04T08:09:04.232Z,5.50
2022-10-04T08:10:04.224Z,5.70
2022-10-04T08:11:04.212Z,5.80
2022-10-04T08:12:04.198Z,5.60
2022-10-04T08:13:04.199Z,6.90
2022-10-04T08:14:04.176Z,6.80
2022-10-04T08:15:04.157Z,5.60
2022-10-04T08:16:04.361Z,6.00
2022-10-04T08:17:04.139Z,7.20
2022-10-04T08:18:04.124Z,6.40
2022-10-04T08:19:04.118Z,5.80
2022-10-04T08:20:04.106Z,5.40
2022-10-04T08:21:04.116Z,5.70
2022-10-04T08:22:04.078Z,5.60
2022-10-04T08:23:04.066Z,6.10
2022-10-04T08:24:04.058Z,5.80
2022-10-04T08:25:04.043Z,6.10
2022-10-04T08:26:04.039Z,5.10
2022-10-04T08:27:04.025Z,5.50
2022-10-04T08:28:04.082Z,5.20
2022-10-04T08:29:04.005Z,5.80
2022-10-04T08:30:03.997Z,5.50
2022-10-04T08:31:04.036Z,5.70
2022-10-04T08:32:05.388Z,5.40
2022-10-04T08:33:03.968Z,5.00
2022-10-04T08:34:03.963Z,5.10
2022-10-04T08:35:03.950Z,4.90
2022-10-04T08:36:03.948Z,5.30
2022-10-04T08:37:03.962Z,4.80
2022-10-04T08:38:03.936Z,4.40
2022-10-04T08:39:03.941Z,4.40
2022-10-04T08:40:03.928Z,4.30
2022-10-04T08:41:03.916Z,4.30
2022-10-04T08:42:03.917Z,5.10
2022-10-04T08:43:03.904Z,4.40
2022-10-04T08:44:03.901Z,4.30
2022-10-04T08:45:03.899Z,4.50
2022-10-04T08:46:03.944Z,4.30
2022-10-04T08:47:03.896Z,4.30
2022-10-04T08:48:03.887Z,4.30
2022-10-04T08:49:03.889Z,4.00
2022-10-04T08:50:03.899Z,4.30
2022-10-04T08:51:03.879Z,4.10
2022-10-04T08:52:03.874Z,4.40
2022-10-04T08:53:07.418Z,4.20
2022-10-04T08:54:03.880Z,3.60
2022-10-04T08:55:03.868Z,4.10
2022-10-04T08:56:03.866Z,4.20
2022-10-04T08:57:03.866Z,4.00
2022-10-04T08:58:03.863Z,4.20
2022-10-04T08:59:03.861Z,3.90
2022-10-04T09:00:03.855Z,4.30
2022-10-04T09:01:03.899Z,4.50
2022-10-04T09:02:03.866Z,3.80
2022-10-04T09:03:03.955Z,3.90
2022-10-04T09:04:03.847Z,4.00
2022-10-04T09:05:03.844Z,4.20
2022-10-04T09:06:03.851Z,3.80
2022-10-04T09:07:03.841Z,4.10
2022-10-04T09:08:03.840Z,3.90
2022-10-04T09:09:03.868Z,3.90
2022-10-04T09:10:03.836Z,4.30
2022-10-04T09:11:03.830Z,3.60
2022-10-04T09:12:03.837Z,3.70
2022-10-04T09:13:03.827Z,4.20
2022-10-04T09:14:03.825Z,4.20
2022-10-04T09:15:03.828Z,3.80
2022-10-04T09:16:03.879Z,4.00
2022-10-04T09:17:03.814Z,3.70
2022-10-04T09:18:03.817Z,3.80
2022-10-04T09:19:03.813Z,3.70
2022-10-04T09:20:26.364Z,3.90
2022-10-04T09:21:03.804Z,3.80
2022-10-04T09:22:03.804Z,3.80
2022-10-04T09:23:06.358Z,3.80
2022-10-04T09:24:03.800Z,3.80
2022-10-04T09:25:03.839Z,3.70
2022-10-04T09:26:03.790Z,4.00
2022-10-04T09:27:03.792Z,4.00
2022-10-04T09:28:03.822Z,4.00
2022-10-04T09:29:05.134Z,4.10
2022-10-04T09:30:03.779Z,3.50
2022-10-04T09:31:03.819Z,3.90
2022-10-04T09:32:03.767Z,3.90
2022-10-04T09:33:03.760Z,3.80
2022-10-04T09:34:03.769Z,3.80
2022-10-04T09:35:03.761Z,3.60
2022-10-04T09:36:03.746Z,3.60
2022-10-04T09:37:03.743Z,3.50
2022-10-04T09:38:03.737Z,3.70
2022-10-04T09:39:28.603Z,3.80
2022-10-04T09:40:03.730Z,3.60
2022-10-04T09:41:03.807Z,3.70
2022-10-04T09:42:03.718Z,3.30
2022-10-04T09:43:03.716Z,3.30
2022-10-04T09:44:03.712Z,3.50
2022-10-04T09:45:03.704Z,3.30
2022-10-04T09:46:03.779Z,3.30
2022-10-04T09:47:03.697Z,3.70
2022-10-04T09:48:03.684Z,3.20
2022-10-04T09:49:03.683Z,3.30
2022-10-04T09:50:03.672Z,3.70
2022-10-04T09:51:03.670Z,3.30
2022-10-04T09:52:03.661Z,3.90
2022-10-04T09:53:03.666Z,4.00
2022-10-04T09:54:03.655Z,3.80
2022-10-04T09:55:03.643Z,4.00
2022-10-04T09:56:03.637Z,3.90
2022-10-04T09:57:03.697Z,4.00
2022-10-04T09:58:03.623Z,3.90
2022-10-04T09:59:03.618Z,4.00
2022-10-04T10:00:03.611Z,3.60
2022-10-04T10:01:03.602Z,3.30
2022-10-04T10:02:03.629Z,3.90
2022-10-04T10:03:03.733Z,3.70
2022-10-04T10:04:03.586Z,4.00
2022-10-04T10:05:03.571Z,3.90
2022-10-04T10:06:03.579Z,3.70
2022-10-04T10:07:03.558Z,3.80
2022-10-04T10:08:03.549Z,3.40
2022-10-04T10:09:03.547Z,3.90
2022-10-04T10:10:03.535Z,3.40
2022-10-04T10:11:03.529Z,3.90
2022-10-04T10:12:03.519Z,3.50
2022-10-04T10:13:03.532Z,4.00
2022-10-04T10:14:03.511Z,4.00
2022-10-04T10:15:03.501Z,3.60
2022-10-04T10:16:03.526Z,3.60
2022-10-04T10:17:03.480Z,3.40
2022-10-04T10:18:03.472Z,3.60
2022-10-04T10:19:03.462Z,3.60
2022-10-04T10:20:03.455Z,3.40
2022-10-04T10:21:03.448Z,3.60
2022-10-04T10:22:03.446Z,3.50
2022-10-04T10:23:03.430Z,3.80
2022-10-04T10:24:03.426Z,3.90
2022-10-04T10:25:03.417Z,3.60
2022-10-04T10:26:03.407Z,3.70
2022-10-04T10:27:03.402Z,4.50
2022-10-04T10:28:03.470Z,3.80
2022-10-04T10:29:03.465Z,4.20
2022-10-04T10:30:03.378Z,4.00
2022-10-04T10:31:03.400Z,4.30
2022-10-04T10:32:03.364Z,4.30
2022-10-04T10:33:03.348Z,4.00
2022-10-04T10:34:03.342Z,3.80
2022-10-04T10:35:03.331Z,4.00
2022-10-04T10:36:03.324Z,4.20
2022-10-04T10:37:03.315Z,4.10
2022-10-04T10:38:04.756Z,4.30
2022-10-04T10:39:03.300Z,4.40
2022-10-04T10:40:03.300Z,4.80
2022-10-04T10:41:03.284Z,4.20
2022-10-04T10:42:03.276Z,4.00
2022-10-04T10:43:03.274Z,4.60
2022-10-04T10:44:03.252Z,4.20
2022-10-04T10:45:03.392Z,4.10
2022-10-04T10:46:03.292Z,3.90
2022-10-04T10:47:03.276Z,4.10
2022-10-04T10:48:03.220Z,4.10
2022-10-04T10:49:03.220Z,3.90
2022-10-04T10:50:03.207Z,4.20
2022-10-04T10:51:03.195Z,4.20
2022-10-04T10:52:03.182Z,4.20
2022-10-04T10:53:03.169Z,4.10
2022-10-04T10:54:03.166Z,3.60
2022-10-04T10:55:03.156Z,4.10
2022-10-04T10:56:03.146Z,3.60
2022-10-04T10:57:03.136Z,4.10
2022-10-04T10:58:03.129Z,4.20
2022-10-04T10:59:03.118Z,4.10
2022-10-04T11:00:03.110Z,4.20
2022-10-04T11:01:03.120Z,4.40
2022-10-04T11:02:03.211Z,4.00
2022-10-04T11:03:12.673Z,3.60
2022-10-04T11:04:03.109Z,4.10
2022-10-04T11:05:03.065Z,4.00
2022-10-04T11:06:03.067Z,4.10
2022-10-04T11:07:03.046Z,4.00
2022-10-04T11:08:03.034Z,4.10
2022-10-04T11:09:03.024Z,4.40
2022-10-04T11:10:03.013Z,4.30
2022-10-04T11:11:03.018Z,4.30
2022-10-04T11:12:02.995Z,3.80
2022-10-04T11:13:02.990Z,4.00
2022-10-04T11:14:02.986Z,4.20
2022-10-04T11:15:02.971Z,3.80
2022-10-04T11:16:03.068Z,4.10
2022-10-04T11:17:02.971Z,4.30
2022-10-04T11:18:02.939Z,3.80
2022-10-04T11:19:02.929Z,3.50
2022-10-04T11:20:02.924Z,3.50
2022-10-04T11:21:02.910Z,4.10
2022-10-04T11:22:02.901Z,4.30
2022-10-04T11:23:02.887Z,3.90
2022-10-04T11:24:02.877Z,4.00
2022-10-04T11:25:02.865Z,3.60
2022-10-04T11:26:02.857Z,3.60
2022-10-04T11:27:02.846Z,3.80
2022-10-04T11:28:02.896Z,3.40
2022-10-04T11:29:02.830Z,4.00
2022-10-04T11:30:02.823Z,3.80
2022-10-04T11:31:02.902Z,4.10
2022-10-04T11:32:02.801Z,3.90
2022-10-04T11:33:02.904Z,3.70
2022-10-04T11:34:02.794Z,4.10
2022-10-04T11:35:02.794Z,4.00
2022-10-04T11:36:02.772Z,4.10
2022-10-04T11:37:02.755Z,3.70
2022-10-04T11:38:02.746Z,3.90
2022-10-04T11:39:02.744Z,3.80
2022-10-04T11:40:02.719Z,4.80
2022-10-04T11:41:02.705Z,4.80
2022-10-04T11:42:02.700Z,4.30
2022-10-04T11:43:02.691Z,4.20
2022-10-04T11:44:02.677Z,4.40
2022-10-04T11:45:02.676Z,4.40
2022-10-04T11:46:05.276Z,4.00
2022-10-04T11:47:02.723Z,4.00
2022-10-04T11:48:02.645Z,4.20
2022-10-04T11:49:02.645Z,4.60
2022-10-04T11:50:02.616Z,4.50
2022-10-04T11:51:02.605Z,4.30
2022-10-04T11:52:02.916Z,4.60
2022-10-04T11:53:02.584Z,4.70
2022-10-04T11:54:02.575Z,4.20
2022-10-04T11:55:02.565Z,3.80
2022-10-04T11:56:02.556Z,4.40
2022-10-04T11:57:02.542Z,4.30
2022-10-04T11:58:02.536Z,4.30
2022-10-04T11:59:02.528Z,4.00
2022-10-04T12:00:02.520Z,4.10
2022-10-04T12:01:02.506Z,4.00
2022-10-04T12:02:02.506Z,3.70
2022-10-04T12:03:02.485Z,3.50
2022-10-04T12:04:02.604Z,4.20
2022-10-04T12:05:02.483Z,4.10
2022-10-04T12:06:02.455Z,3.90
2022-10-04T12:07:02.443Z,3.70
2022-10-04T12:08:02.441Z,3.70
2022-10-04T12:09:02.423Z,3.40
2022-10-04T12:10:02.416Z,3.50
2022-10-04T12:11:02.401Z,3.60
2022-10-04T12:12:02.391Z,3.60
2022-10-04T12:13:02.378Z,3.20
2022-10-04T12:14:02.371Z,3.00
2022-10-04T12:15:02.360Z,3.20
2022-10-04T12:16:02.392Z,3.30
2022-10-04T12:17:02.336Z,3.30
2022-10-04T12:18:02.344Z,3.70
2022-10-04T12:19:02.321Z,3.10
2022-10-04T12:20:02.307Z,3.60
2022-10-04T12:21:02.324Z,3.00
2022-10-04T12:22:02.288Z,2.70
2022-10-04T12:23:02.283Z,3.20
2022-10-04T12:24:02.266Z,3.70
2022-10-04T12:25:02.256Z,3.30
2022-10-04T12:26:02.249Z,3.40
2022-10-04T12:27:02.236Z,3.40
2022-10-04T12:28:02.293Z,3.80
2022-10-04T12:29:02.211Z,3.60
2022-10-04T12:30:02.207Z,2.80
2022-10-04T12:31:02.194Z,4.20
2022-10-04T12:32:02.290Z,3.70
2022-10-04T12:33:02.171Z,3.60
2022-10-04T12:34:02.172Z,3.00
2022-10-04T12:35:02.156Z,3.60
2022-10-04T12:36:02.143Z,3.10
2022-10-04T12:37:02.153Z,3.00
2022-10-04T12:38:02.127Z,3.20
2022-10-04T12:39:02.113Z,3.70
2022-10-04T12:40:02.112Z,3.50
2022-10-04T12:41:02.097Z,3.30
2022-10-04T12:42:02.086Z,3.00
2022-10-04T12:43:02.075Z,3.30
2022-10-04T12:44:02.059Z,3.10
2022-10-04T12:45:02.047Z,3.10
2022-10-04T12:46:02.092Z,3.20
2022-10-04T12:47:02.034Z,3.20
2022-10-04T12:48:02.019Z,3.40
2022-10-04T12:49:02.009Z,3.20
2022-10-04T12:50:02.004Z,3.10
2022-10-04T12:51:01.989Z,2.90
2022-10-04T12:52:01.980Z,2.90
2022-10-04T12:53:01.986Z,3.00
2022-10-04T12:54:01.962Z,3.00
2022-10-04T12:55:01.948Z,2.90
2022-10-04T12:56:01.940Z,3.40
2022-10-04T12:57:01.933Z,3.40
2022-10-04T12:58:01.922Z,2.90
2022-10-04T12:59:01.909Z,3.30
2022-10-04T13:00:01.899Z,3.20
2022-10-04T13:01:02.509Z,3.20
2022-10-04T13:02:01.923Z,3.00
2022-10-04T13:03:01.867Z,3.10
2022-10-04T13:04:01.859Z,3.20
2022-10-04T13:05:01.846Z,3.00
2022-10-04T13:06:01.838Z,2.80
2022-10-04T13:07:01.837Z,3.00
2022-10-04T13:08:01.827Z,3.20
2022-10-04T13:09:01.824Z,2.70
2022-10-04T13:10:23.011Z,3.30
2022-10-04T13:11:01.791Z,3.10
2022-10-04T13:12:01.777Z,2.80
2022-10-04T13:13:05.218Z,3.30
2022-10-04T13:14:01.758Z,2.70
2022-10-04T13:15:01.746Z,3.00
2022-10-04T13:18:01.715Z,2.70